Hay, WA (99136)

12:54 AM PST on February 13, 2016 (GMT -0800)
APRSWXNET | | Change Station
CLOSE
Current Station
Personal Weather Station
Location: Lacrosse, WA
Elevation: 679 ft
Nearby Weather Stations

Elev 679 ft 46.67 °N, 117.75 °W | Updated 28 minutes ago

Overcast
Overcast
48 °F
Feels Like 48 °F
N
1
Wind Variable Wind from South
Gusts 8.0 mph

Today
High -- | Low -- °F
--% Chance of Precip.
Yesterday
High -- | Low -- °F
Precip. -- in
Pressure 30.18 in
Visibility 10.0 miles
Clouds Few 6500 ft
Overcast 9500 ft
Windchill 48 °F
Dew Point 43 °F
Humidity 83%
Rainfall in
Snow Depth Not available.
6:59 AM 5:13 PM
Waxing Crescent, 28% visible
METAR KPUW 130753Z AUTO 00000KT 10SM FEW065 OVC095 06/04 A3015 RMK AO2 RAB0659E20 SLP218 P0001 T00560039 401110044
Pressure 30.18 in
Visibility 10.0 miles
Clouds Few 6500 ft
Overcast 9500 ft
Windchill 48 °F
Dew Point 43 °F
Humidity 83%
Rainfall in
Snow Depth Not available.
6:59 AM 5:13 PM
Waxing Crescent, 28% visible
METAR KPUW 130753Z AUTO 00000KT 10SM FEW065 OVC095 06/04 A3015 RMK AO2 RAB0659E20 SLP218 P0001 T00560039 401110044

10-Day Weather Forecast

Almanac

Astronomy

Feb. 13, 2016 Rise Set
Actual Time
Civil Twilight
Nautical Twilight
Astronomical Twilight
Moon
Length of Visible Light
Length of Day
Tomorrow will be .
, % of the Moon is Illuminated

Today's Extremes

State Highs State Lows

Community

WunderPhotos

Upload Photos

1,892,536 photos uploaded!

WunderBlog® & News

Nearby

Air Quality

  Air Quality AQ Index Pollutant
Not available.

Snow Depth

Station Depth Elevation

Earthquake Activity

City Distance Mag. Time & Date
Minimum magnitude displayed is 2.5.

Coastal Water Temperatures

Place Temperature

Stations

Nearby Weather Stations

Station Location Temp. Windchill Dew Point Humidity Wind Precip. Elev Updated Type
                   

Watches & Warnings

There are currently no watches in effect.